Terminal Aerodrome Forecast
Issued by NWS

Home | Current Version | Previous Version | Graphics & Text | Print | Product List | Glossary On
Versions: 1 2 3 4 5 6 7 8 9 10 11 12 13 14 15 16 17 18
000
FTUS43 KUNR 241100
TAFGCC
TAF
KGCC 241120Z 2412/2512 22015KT P6SM BKN200
     FM250400 27008KT P6SM BKN050
     FM250900 33010KT 1SM -SN SCT008 OVC010=

USA.gov is the U.S. government's official web portal to all federal, state and local government web resources and services.